Time;durP1;ratioP1;P1;durP2;ratioP2;P2;SDS_P1;SDS_P2;PMS_P1;PMS_P2;Temp;Humidity;BMP_temperature;BMP_pressure;BME280_temperature;BME280_humidity;BME280_pressure;Samples;Min_cycle;Max_cycle;Signal;HPM_P1;HPM_P2
2021/11/10 00:02:33;;;;;;;14.30;5.43;;;;;;;;;;10449071;28;19921;-72
2021/11/10 00:07:37;;;;;;;16.93;5.60;;;;;;;;;;10447390;28;20072;-73
2021/11/10 00:12:41;;;;;;;18.97;6.33;;;;;;;;;;10447644;28;20056;-71
2021/11/10 00:17:44;;;;;;;21.27;6.50;;;;;;;;;;10440293;28;20049;-71
2021/11/10 00:22:48;;;;;;;15.87;5.70;;;;;;;;;;10439883;28;20061;-72
2021/11/10 00:27:50;;;;;;;;;;;;;;;;;;10441258;28;20450;-72
2021/11/10 00:32:53;;;;;;;12.90;5.13;;;;;;;;;;10434454;28;19924;-72
2021/11/10 00:37:57;;;;;;;14.43;5.87;;;;;;;;;;10432260;28;20485;-72
2021/11/10 00:43:00;;;;;;;;;;;;;;;;;;10441380;28;20075;-73
2021/11/10 00:48:03;;;;;;;18.00;6.30;;;;;;;;;;10434834;28;19924;-73
2021/11/10 00:53:07;;;;;;;14.07;6.77;;;;;;;;;;10440620;28;20037;-72
2021/11/10 00:58:10;;;;;;;18.30;7.00;;;;;;;;;;10435942;28;20077;-71
2021/11/10 01:03:14;;;;;;;20.07;7.07;;;;;;;;;;10444112;28;20056;-72
2021/11/10 01:08:19;;;;;;;16.10;6.25;;;;;;;;;;10443139;28;20133;-71
2021/11/10 01:13:22;;;;;;;16.60;5.80;;;;;;;;;;10443376;28;20051;-72
2021/11/10 01:18:25;;;;;;;12.98;5.47;;;;;;;;;;10439860;28;20045;-72
2021/11/10 01:23:30;;;;;;;15.43;5.73;;;;;;;;;;10438618;28;20468;-72
2021/11/10 01:28:32;;;;;;;29.57;12.20;;;;;;;;;;10429404;28;20425;-73
2021/11/10 01:33:35;;;;;;;20.70;7.67;;;;;;;;;;10440543;28;20346;-70
2021/11/10 01:38:40;;;;;;;18.70;7.70;;;;;;;;;;10425582;28;20037;-74
2021/11/10 01:43:44;;;;;;;18.73;7.13;;;;;;;;;;10439608;28;20049;-72
2021/11/10 01:48:48;;;;;;;18.50;6.73;;;;;;;;;;10431183;28;20048;-69
2021/11/10 01:53:52;;;;;;;16.03;6.37;;;;;;;;;;10436877;28;20045;-72
2021/11/10 01:58:55;;;;;;;18.83;6.93;;;;;;;;;;10440255;28;20102;-72
2021/11/10 02:04:01;;;;;;;21.03;6.80;;;;;;;;;;10436650;28;20048;-72
2021/11/10 02:09:06;;;;;;;20.87;7.37;;;;;;;;;;10433812;28;20048;-73
2021/11/10 02:14:18;;;;;;;15.98;6.32;;;;;;;;;;10432531;28;20064;-72
2021/11/10 02:19:21;;;;;;;13.27;5.87;;;;;;;;;;10431914;28;20516;-72
2021/11/10 02:24:27;;;;;;;13.85;6.97;;;;;;;;;;10440101;28;20041;-71
2021/11/10 02:29:32;;;;;;;16.70;6.70;;;;;;;;;;10447362;28;20120;-75
2021/11/10 02:34:36;;;;;;;19.40;7.00;;;;;;;;;;10440158;28;20045;-74
2021/11/10 02:39:41;;;;;;;16.50;6.78;;;;;;;;;;10432631;28;20472;-73
2021/11/10 02:44:43;;;;;;;;;;;;;;;;;;10437759;28;20045;-71
2021/11/10 02:49:46;;;;;;;19.97;6.30;;;;;;;;;;10441938;28;19995;-73
2021/11/10 02:54:52;;;;;;;19.97;6.97;;;;;;;;;;10443174;28;20041;-73
2021/11/10 02:59:55;;;;;;;15.63;6.43;;;;;;;;;;10445526;28;20168;-73
2021/11/10 03:04:58;;;;;;;21.80;6.87;;;;;;;;;;10445619;28;20072;-72
2021/11/10 03:10:04;;;;;;;19.80;7.67;;;;;;;;;;10440837;28;20028;-75
2021/11/10 03:15:07;;;;;;;15.43;6.63;;;;;;;;;;10444661;28;20040;-73
2021/11/10 03:20:11;;;;;;;17.30;7.25;;;;;;;;;;10435814;28;20116;-70
2021/11/10 03:25:15;;;;;;;16.27;6.20;;;;;;;;;;10442603;28;20123;-72
2021/11/10 03:30:17;;;;;;;;;;;;;;;;;;10436513;28;20033;-75
2021/11/10 03:35:20;;;;;;;14.03;6.40;;;;;;;;;;10435602;28;19979;-74
2021/11/10 03:40:24;;;;;;;17.17;6.67;;;;;;;;;;10439345;28;20156;-72
2021/11/10 03:45:27;;;;;;;16.93;7.13;;;;;;;;;;10441364;28;20048;-72
2021/11/10 03:50:30;;;;;;;16.23;6.43;;;;;;;;;;10429092;28;20114;-73
2021/11/10 03:55:37;;;;;;;17.63;6.77;;;;;;;;;;10440864;28;20041;-71
2021/11/10 04:00:40;;;;;;;18.40;6.43;;;;;;;;;;10453046;28;20545;-72
2021/11/10 04:05:44;;;;;;;20.37;6.87;;;;;;;;;;10438221;28;20041;-70
2021/11/10 04:10:48;;;;;;;16.90;6.37;;;;;;;;;;10439224;28;20068;-75
2021/11/10 04:15:51;;;;;;;9.57;3.33;;;;;;;;;;10436104;28;20072;-71
2021/11/10 04:21:14;;;;;;;17.27;6.33;;;;;;;;;;10445111;28;20049;-73
2021/11/10 04:26:19;;;;;;;9.47;4.73;;;;;;;;;;10445813;28;20036;-73
2021/11/10 04:31:22;;;;;;;19.73;7.50;;;;;;;;;;10445006;28;20536;-73
2021/11/10 04:36:28;;;;;;;16.50;6.20;;;;;;;;;;10447296;28;20068;-72
2021/11/10 04:41:33;;;;;;;16.97;7.17;;;;;;;;;;10447329;28;20041;-73
2021/11/10 04:46:36;;;;;;;;;;;;;;;;;;10441591;28;20052;-72
2021/11/10 04:51:39;;;;;;;15.83;6.30;;;;;;;;;;10439027;28;20000;-73
2021/11/10 04:56:43;;;;;;;16.03;7.20;;;;;;;;;;10441620;28;20041;-74
2021/11/10 05:02:23;;;;;;;;;;;;;;;;;;10435572;28;20132;-70
2021/11/10 05:07:22;;;;;;;13.70;5.43;;;;;;;;;;10433735;28;19987;-71
2021/11/10 05:12:26;;;;;;;13.67;6.00;;;;;;;;;;10436299;28;20056;-71
2021/11/10 05:17:29;;;;;;;;;;;;;;;;;;10438305;28;20041;-71
2021/11/10 05:22:32;;;;;;;19.07;7.10;;;;;;;;;;10440555;28;19924;-71
2021/11/10 05:27:36;;;;;;;15.27;6.47;;;;;;;;;;10433768;28;20044;-72
2021/11/10 05:32:39;;;;;;;19.40;7.30;;;;;;;;;;10437525;28;20385;-73
2021/11/10 05:37:42;;;;;;;13.70;6.17;;;;;;;;;;10431692;28;20148;-69
2021/11/10 05:42:46;;;;;;;17.43;6.97;;;;;;;;;;10436633;28;20053;-70
2021/11/10 05:47:49;;;;;;;;;;;;;;;;;;10437698;28;20075;-70
2021/11/10 05:52:52;;;;;;;15.03;5.37;;;;;;;;;;10432006;28;19952;-71
2021/11/10 05:57:56;;;;;;;16.17;6.60;;;;;;;;;;10433402;28;20105;-73
2021/11/10 06:02:59;;;;;;;;;;;;;;;;;;10435648;28;20496;-73
2021/11/10 06:08:02;;;;;;;15.67;6.40;;;;;;;;;;10436818;28;19928;-72
2021/11/10 06:13:06;;;;;;;19.07;6.10;;;;;;;;;;10441274;28;20485;-71
2021/11/10 06:18:08;;;;;;;;;;;;;;;;;;10437234;28;20095;-73
2021/11/10 06:23:11;;;;;;;16.83;5.83;;;;;;;;;;10436890;28;19934;-71
2021/11/10 06:28:15;;;;;;;14.13;6.03;;;;;;;;;;10435490;28;20041;-71
2021/11/10 06:33:18;;;;;;;;;;;;;;;;;;10439726;28;20052;-72
2021/11/10 06:38:21;;;;;;;15.67;6.47;;;;;;;;;;10441145;28;20066;-72
2021/11/10 06:43:26;;;;;;;15.93;6.67;;;;;;;;;;10444659;28;20041;-74
2021/11/10 06:48:29;;;;;;;19.83;6.37;;;;;;;;;;10437246;28;20091;-74
2021/11/10 06:53:32;;;;;;;16.37;6.43;;;;;;;;;;10421260;28;20069;-72
2021/11/10 06:58:36;;;;;;;19.37;6.33;;;;;;;;;;10431458;28;20053;-71
2021/11/10 07:03:38;;;;;;;;;;;;;;;;;;10429748;28;20480;-72
2021/11/10 07:08:41;;;;;;;14.50;6.07;;;;;;;;;;10453223;28;20046;-73
2021/11/10 07:13:44;;;;;;;;;;;;;;;;;;10430277;28;20081;-73
2021/11/10 07:18:47;;;;;;;;;;;;;;;;;;10431328;28;19971;-73
2021/11/10 07:23:49;;;;;;;;;;;;;;;;;;10437408;28;19948;-72
2021/11/10 07:28:53;;;;;;;15.88;6.85;;;;;;;;;;10428327;28;19929;-72
2021/11/10 07:33:59;;;;;;;16.15;7.10;;;;;;;;;;10427441;28;20116;-72
2021/11/10 07:39:01;;;;;;;;;;;;;;;;;;10436344;28;20045;-73
2021/11/10 07:44:07;;;;;;;16.08;7.13;;;;;;;;;;10441951;28;19943;-73
2021/11/10 07:49:10;;;;;;;19.02;9.90;;;;;;;;;;10432206;28;20429;-72
2021/11/10 07:54:13;;;;;;;18.45;10.07;;;;;;;;;;10426330;28;20914;-72
2021/11/10 07:59:17;;;;;;;14.15;8.07;;;;;;;;;;10422626;28;20047;-75
2021/11/10 08:04:20;;;;;;;20.05;7.47;;;;;;;;;;10436431;28;20041;-72
2021/11/10 08:09:23;;;;;;;;;;;;;;;;;;10435992;28;20292;-72
2021/11/10 08:14:29;;;;;;;;;;;;;;;;;;10440293;28;20216;-72
2021/11/10 08:19:31;;;;;;;;;;;;;;;;;;10423934;28;20449;-71
2021/11/10 08:24:34;;;;;;;;;;;;;;;;;;10421547;28;19921;-73
2021/11/10 08:29:37;;;;;;;;;;;;;;;;;;10437263;28;19921;-74
2021/11/10 08:34:40;;;;;;;;;;;;;;;;;;10428740;28;19921;-73
2021/11/10 08:39:42;;;;;;;;;;;;;;;;;;10439403;28;19927;-72
2021/11/10 08:44:47;;;;;;;;;;;;;;;;;;10434165;28;19960;-74
2021/11/10 08:49:49;;;;;;;;;;;;;;;;;;10433047;28;20345;-74
2021/11/10 08:54:52;;;;;;;;;;;;;;;;;;10416593;28;19932;-72
2021/11/10 08:59:54;;;;;;;;;;;;;;;;;;10414484;28;19955;-74
2021/11/10 09:04:59;;;;;;;15.30;6.60;;;;;;;;;;10421048;28;20035;-73
2021/11/10 09:10:03;;;;;;;14.98;7.05;;;;;;;;;;10434597;28;20041;-72
2021/11/10 09:15:07;;;;;;;15.60;8.43;;;;;;;;;;10423353;28;20452;-73
2021/11/10 09:20:14;;;;;;;17.70;9.27;;;;;;;;;;10416725;28;20720;-73
2021/11/10 09:25:18;;;;;;;19.75;8.23;;;;;;;;;;10429003;28;20041;-71
2021/11/10 09:30:22;;;;;;;17.25;8.02;;;;;;;;;;10429352;28;20072;-73
2021/11/10 09:35:27;;;;;;;18.00;8.63;;;;;;;;;;10438121;28;20112;-76
2021/11/10 09:40:31;;;;;;;17.42;7.88;;;;;;;;;;10435446;28;20052;-74
2021/11/10 09:45:35;;;;;;;14.43;7.53;;;;;;;;;;10424408;28;20045;-74
2021/11/10 09:50:43;;;;;;;14.80;7.82;;;;;;;;;;10422609;28;20100;-72
2021/11/10 09:55:46;;;;;;;15.05;7.20;;;;;;;;;;10427613;28;20051;-73
2021/11/10 10:00:48;;;;;;;;;;;;;;;;;;10428112;28;20083;-73
2021/11/10 10:05:51;;;;;;;;;;;;;;;;;;10435669;28;19924;-73
2021/11/10 10:10:54;;;;;;;;;;;;;;;;;;10434899;28;19936;-74
2021/11/10 10:15:56;;;;;;;;;;;;;;;;;;10450833;28;20281;-73
2021/11/10 10:20:59;;;;;;;;;;;;;;;;;;10452212;28;19931;-73
2021/11/10 10:26:06;;;;;;;13.48;6.70;;;;;;;;;;10454698;28;19967;-73
2021/11/10 10:31:10;;;;;;;17.40;7.47;;;;;;;;;;10441720;28;20345;-73
2021/11/10 10:36:15;;;;;;;11.15;5.80;;;;;;;;;;10442368;28;20056;-74
2021/11/10 10:41:17;;;;;;;;;;;;;;;;;;10439427;28;20037;-74
2021/11/10 10:46:20;;;;;;;;;;;;;;;;;;10442445;28;20377;-76
2021/11/10 10:51:23;;;;;;;;;;;;;;;;;;10442709;28;19967;-73
2021/11/10 10:56:25;;;;;;;;;;;;;;;;;;10422557;28;19921;-74
2021/11/10 11:01:28;;;;;;;;;;;;;;;;;;10439662;28;19924;-72
2021/11/10 11:06:31;;;;;;;;;;;;;;;;;;10439208;28;20500;-73
2021/11/10 11:11:39;;;;;;;;;;;;;;;;;;10435039;28;19932;-73
2021/11/10 11:16:43;;;;;;;;;;;;;;;;;;10419679;28;20213;-72
2021/11/10 11:21:45;;;;;;;;;;;;;;;;;;10437004;28;20024;-72
2021/11/10 11:26:48;;;;;;;;;;;;;;;;;;10434129;28;19974;-73
2021/11/10 11:31:50;;;;;;;;;;;;;;;;;;10444672;28;20027;-73
2021/11/10 11:36:53;;;;;;;;;;;;;;;;;;10419477;28;19925;-73
2021/11/10 11:41:57;;;;;;;8.15;4.00;;;;;;;;;;10416270;28;20070;-71
2021/11/10 11:47:00;;;;;;;9.10;4.00;;;;;;;;;;10430120;28;20157;-72
2021/11/10 11:52:03;;;;;;;8.00;4.05;;;;;;;;;;10432676;28;20042;-74
2021/11/10 11:57:05;;;;;;;;;;;;;;;;;;10425845;28;20049;-72
2021/11/10 12:02:27;;;;;;;14.77;4.90;;;;;;;;;;10414380;28;20003;-74
2021/11/10 12:07:45;;;;;;;7.80;4.25;;;;;;;;;;10414513;28;20440;-73
2021/11/10 12:12:48;;;;;;;12.23;5.50;;;;;;;;;;10423010;28;20128;-73
2021/11/10 12:18:06;;;;;;;11.43;4.55;;;;;;;;;;10417971;28;20057;-73
2021/11/10 12:23:09;;;;;;;8.77;4.57;;;;;;;;;;10417835;28;20504;-74
2021/11/10 12:28:42;;;;;;;10.60;4.68;;;;;;;;;;10439203;28;20044;-71
2021/11/10 12:33:46;;;;;;;9.82;4.40;;;;;;;;;;10433546;28;20041;-72
2021/11/10 12:38:49;;;;;;;7.95;4.43;;;;;;;;;;10427133;28;21029;-70
2021/11/10 12:43:52;;;;;;;12.13;4.80;;;;;;;;;;10429545;28;20068;-74
2021/11/10 12:49:14;;;;;;;11.20;4.15;;;;;;;;;;10423077;28;20041;-72
2021/11/10 12:54:25;;;;;;;11.32;4.35;;;;;;;;;;10434676;28;20033;-73
2021/11/10 12:59:30;;;;;;;9.27;4.40;;;;;;;;;;10427383;28;20164;-72
2021/11/10 13:04:35;;;;;;;8.43;4.40;;;;;;;;;;10414489;28;20053;-74
2021/11/10 13:09:39;;;;;;;7.65;3.90;;;;;;;;;;10428944;28;20057;-73
2021/11/10 13:14:44;;;;;;;9.32;4.35;;;;;;;;;;10438749;28;20075;-74
2021/11/10 13:20:00;;;;;;;13.40;4.38;;;;;;;;;;10433452;28;20573;-77
2021/11/10 13:25:06;;;;;;;11.85;4.85;;;;;;;;;;10434247;28;20099;-74
2021/11/10 13:30:11;;;;;;;11.20;5.05;;;;;;;;;;10434149;28;20065;-74
2021/11/10 13:35:19;;;;;;;14.13;6.20;;;;;;;;;;10422618;28;20045;-74
2021/11/10 13:40:22;;;;;;;12.27;6.22;;;;;;;;;;10419534;28;20086;-76
2021/11/10 13:45:26;;;;;;;15.07;7.00;;;;;;;;;;10414194;28;20082;-73
2021/11/10 13:50:32;;;;;;;16.02;7.43;;;;;;;;;;10418760;28;20055;-73
2021/11/10 13:55:36;;;;;;;13.95;7.10;;;;;;;;;;10426758;28;20431;-72
2021/11/10 14:00:40;;;;;;;15.63;7.32;;;;;;;;;;10410802;28;20041;-75
2021/11/10 14:05:45;;;;;;;19.20;7.32;;;;;;;;;;10415643;28;20438;-74
2021/11/10 14:10:55;;;;;;;15.82;6.25;;;;;;;;;;10433719;28;20501;-75
2021/11/10 14:15:58;;;;;;;16.42;6.90;;;;;;;;;;10416972;28;20131;-72
2021/11/10 14:21:04;;;;;;;16.27;7.23;;;;;;;;;;10411286;28;20730;-72
2021/11/10 14:26:09;;;;;;;17.40;7.05;;;;;;;;;;10412097;28;20053;-71
2021/11/10 14:31:15;;;;;;;20.55;6.97;;;;;;;;;;10413570;28;20057;-75
2021/11/10 14:36:21;;;;;;;12.52;7.10;;;;;;;;;;10409659;28;20049;-72
2021/11/10 14:41:35;;;;;;;15.95;7.40;;;;;;;;;;10420128;28;20112;-74
2021/11/10 14:46:41;;;;;;;14.85;7.20;;;;;;;;;;10429817;28;20126;-73
2021/11/10 14:51:50;;;;;;;16.08;7.95;;;;;;;;;;10407674;28;20030;-73
2021/11/10 14:56:53;;;;;;;;;;;;;;;;;;10417212;28;20074;-73
2021/11/10 15:01:56;;;;;;;;;;;;;;;;;;10428895;28;20316;-73
2021/11/10 15:06:59;;;;;;;;;;;;;;;;;;10427541;28;19921;-71
2021/11/10 15:12:01;;;;;;;;;;;;;;;;;;10433336;28;19936;-73
2021/11/10 15:17:04;;;;;;;;;;;;;;;;;;10440183;28;20150;-71
2021/11/10 15:22:07;;;;;;;;;;;;;;;;;;10443658;28;20471;-74
2021/11/10 15:27:11;;;;;;;14.55;6.80;;;;;;;;;;10425694;28;20328;-74
2021/11/10 15:32:14;;;;;;;16.30;6.75;;;;;;;;;;10432347;28;20132;-75
2021/11/10 15:37:17;;;;;;;14.38;6.95;;;;;;;;;;10435780;28;20469;-73
2021/11/10 15:42:21;;;;;;;16.52;7.65;;;;;;;;;;10433013;28;20057;-74
2021/11/10 15:47:26;;;;;;;16.15;7.20;;;;;;;;;;10424416;28;20386;-74
2021/11/10 15:52:28;;;;;;;17.20;6.57;;;;;;;;;;10436216;28;20051;-71
2021/11/10 15:57:31;;;;;;;;;;;;;;;;;;10436080;28;20045;-74
2021/11/10 16:02:34;;;;;;;;;;;;;;;;;;10424093;28;19929;-75
2021/11/10 16:07:38;;;;;;;15.73;6.95;;;;;;;;;;10419494;28;20020;-74
2021/11/10 16:12:41;;;;;;;16.60;7.60;;;;;;;;;;10423262;28;20045;-75
2021/11/10 16:17:44;;;;;;;16.00;7.28;;;;;;;;;;10434787;28;20127;-72
2021/11/10 16:22:49;;;;;;;18.03;7.93;;;;;;;;;;10429041;28;20037;-72
2021/11/10 16:27:56;;;;;;;19.88;8.27;;;;;;;;;;10424540;28;20129;-74
2021/11/10 16:33:07;;;;;;;21.90;9.32;;;;;;;;;;10430379;28;20110;-76
2021/11/10 16:38:12;;;;;;;23.77;8.48;;;;;;;;;;10422531;28;20072;-73
2021/11/10 16:43:16;;;;;;;23.52;9.18;;;;;;;;;;10423714;28;20045;-74
2021/11/10 16:48:20;;;;;;;;;;;;;;;;;;10423320;28;21036;-74
2021/11/10 16:53:23;;;;;;;;;;;;;;;;;;10429813;28;19924;-72
2021/11/10 16:58:32;;;;;;;;;;;;;;;;;;10420894;28;19921;-73
2021/11/10 17:03:36;;;;;;;;;;;;;;;;;;10430905;28;19921;-74
2021/11/10 17:08:40;;;;;;;16.50;7.85;;;;;;;;;;10430961;28;19920;-75
2021/11/10 17:13:45;;;;;;;28.70;13.82;;;;;;;;;;10426263;28;20809;-74
2021/11/10 17:18:47;;;;;;;32.45;11.00;;;;;;;;;;10407984;28;20057;-74
2021/11/10 17:23:52;;;;;;;22.00;9.38;;;;;;;;;;10425468;28;20041;-73
2021/11/10 17:28:55;;;;;;;23.08;9.13;;;;;;;;;;10428768;28;20041;-73
2021/11/10 17:34:00;;;;;;;20.48;9.65;;;;;;;;;;10434898;28;20025;-71
2021/11/10 17:39:04;;;;;;;24.15;9.82;;;;;;;;;;10424448;28;20037;-73
2021/11/10 17:44:08;;;;;;;17.10;8.60;;;;;;;;;;10409379;28;20072;-73
2021/11/10 17:49:11;;;;;;;23.00;9.63;;;;;;;;;;10418955;28;20361;-71
2021/11/10 17:54:15;;;;;;;21.20;9.90;;;;;;;;;;10414905;28;20056;-71
2021/11/10 17:59:18;;;;;;;;;;;;;;;;;;10425142;28;20307;-73
2021/11/10 18:04:21;;;;;;;25.17;9.35;;;;;;;;;;10424367;28;20024;-71
2021/11/10 18:09:26;;;;;;;28.30;9.60;;;;;;;;;;10420022;28;20103;-74
2021/11/10 18:14:28;;;;;;;22.25;10.05;;;;;;;;;;10437213;28;20500;-73
2021/11/10 18:19:32;;;;;;;22.10;10.60;;;;;;;;;;10428548;28;20072;-72
2021/11/10 18:24:38;;;;;;;21.95;9.88;;;;;;;;;;10436212;28;20474;-73
2021/11/10 18:29:50;;;;;;;23.70;10.52;;;;;;;;;;10434238;28;20493;-73
2021/11/10 18:35:13;;;;;;;21.85;10.43;;;;;;;;;;10434768;28;20059;-73
2021/11/10 18:40:18;;;;;;;25.43;9.47;;;;;;;;;;10442147;28;20116;-72
2021/11/10 18:45:21;;;;;;;30.15;10.02;;;;;;;;;;10440611;28;20083;-73
2021/11/10 18:50:26;;;;;;;21.25;9.70;;;;;;;;;;10441529;28;20048;-74
2021/11/10 18:55:30;;;;;;;20.88;9.15;;;;;;;;;;10441771;28;20508;-73
2021/11/10 19:00:33;;;;;;;31.37;15.60;;;;;;;;;;10436171;28;20425;-74
2021/11/10 19:05:47;;;;;;;29.93;15.50;;;;;;;;;;10435800;28;20733;-74
2021/11/10 19:11:03;;;;;;;29.15;15.52;;;;;;;;;;10436644;28;20421;-72
2021/11/10 19:16:23;;;;;;;31.80;16.05;;;;;;;;;;10440610;28;20468;-72
2021/11/10 19:21:28;;;;;;;;;;;;;;;;;;10442275;28;20401;-74
2021/11/10 19:26:32;;;;;;;21.13;9.60;;;;;;;;;;10441027;28;19956;-72
2021/11/10 19:31:34;;;;;;;;;;;;;;;;;;10441995;28;20045;-75
2021/11/10 19:36:37;;;;;;;;;;;;;;;;;;10445668;28;19947;-71
2021/11/10 19:41:40;;;;;;;;;;;;;;;;;;10440835;28;19924;-73
2021/11/10 19:46:45;;;;;;;24.48;10.15;;;;;;;;;;10442338;28;19920;-72
2021/11/10 19:51:48;;;;;;;22.70;10.15;;;;;;;;;;10439593;28;20075;-74
2021/11/10 19:56:52;;;;;;;28.98;11.75;;;;;;;;;;10442905;28;20073;-73
2021/11/10 20:02:01;;;;;;;27.23;9.97;;;;;;;;;;10441091;28;20275;-73
2021/11/10 20:07:05;;;;;;;40.08;19.90;;;;;;;;;;10434800;28;20421;-73
2021/11/10 20:12:08;;;;;;;38.10;19.20;;;;;;;;;;10442189;28;20481;-72
2021/11/10 20:17:12;;;;;;;41.93;20.70;;;;;;;;;;10439176;28;20425;-72
2021/11/10 20:22:17;;;;;;;39.80;18.90;;;;;;;;;;10434804;28;20491;-75
2021/11/10 20:27:20;;;;;;;36.47;19.38;;;;;;;;;;10441982;28;20459;-74
2021/11/10 20:32:24;;;;;;;34.83;18.95;;;;;;;;;;10438437;28;20418;-71
2021/11/10 20:37:27;;;;;;;39.83;20.00;;;;;;;;;;10438414;28;20434;-73
2021/11/10 20:42:30;;;;;;;40.88;20.75;;;;;;;;;;10439593;28;20952;-72
2021/11/10 20:47:35;;;;;;;40.30;20.52;;;;;;;;;;10437426;28;20425;-74
2021/11/10 20:52:38;;;;;;;38.67;19.70;;;;;;;;;;10438038;28;20417;-72
2021/11/10 20:57:41;;;;;;;41.30;19.85;;;;;;;;;;10435313;28;20488;-74
2021/11/10 21:02:46;;;;;;;38.67;19.65;;;;;;;;;;10432602;28;20735;-74
2021/11/10 21:07:50;;;;;;;42.13;21.35;;;;;;;;;;10436915;28;20459;-73
2021/11/10 21:12:53;;;;;;;43.20;21.38;;;;;;;;;;10435951;28;20724;-73
2021/11/10 21:17:57;;;;;;;43.05;20.70;;;;;;;;;;10428846;28;20476;-76
2021/11/10 21:23:00;;;;;;;43.55;21.15;;;;;;;;;;10432455;28;20430;-75
2021/11/10 21:28:03;;;;;;;43.08;21.45;;;;;;;;;;10431148;28;20477;-72
2021/11/10 21:33:11;;;;;;;45.80;22.33;;;;;;;;;;10432209;28;20467;-73
2021/11/10 21:38:13;;;;;;;51.50;24.33;;;;;;;;;;10428372;28;20488;-73
2021/11/10 21:43:16;;;;;;;45.58;22.20;;;;;;;;;;10428748;28;20942;-71
2021/11/10 21:48:21;;;;;;;44.78;22.50;;;;;;;;;;10426780;28;20836;-71
2021/11/10 21:53:24;;;;;;;44.90;21.70;;;;;;;;;;10436206;28;20503;-73
2021/11/10 21:58:27;;;;;;;44.10;21.87;;;;;;;;;;10432182;28;20433;-74
2021/11/10 22:03:31;;;;;;;51.17;23.73;;;;;;;;;;10432243;28;21004;-70
2021/11/10 22:08:34;;;;;;;40.97;20.83;;;;;;;;;;10444193;28;20432;-72
2021/11/10 22:13:37;;;;;;;44.92;21.48;;;;;;;;;;10443844;28;20417;-73
2021/11/10 22:18:41;;;;;;;47.30;22.40;;;;;;;;;;10443230;28;20615;-71
2021/11/10 22:23:54;;;;;;;44.75;22.83;;;;;;;;;;10446259;28;20516;-76
2021/11/10 22:28:56;;;;;;;49.47;23.50;;;;;;;;;;10444555;28;20421;-74
2021/11/10 22:33:59;;;;;;;;;;;;;;;;;;10446874;28;20433;-75
2021/11/10 22:39:02;;;;;;;;;;;;;;;;;;10448403;28;19921;-72
2021/11/10 22:44:04;;;;;;;;;;;;;;;;;;10450058;28;19925;-72
2021/11/10 22:49:07;;;;;;;;;;;;;;;;;;10448634;28;19936;-72
2021/11/10 22:54:09;;;;;;;;;;;;;;;;;;10445926;28;20011;-74
2021/11/10 22:59:13;;;;;;;28.07;10.27;;;;;;;;;;10450116;28;20227;-75
2021/11/10 23:04:17;;;;;;;;;;;;;;;;;;10449568;28;20046;-73
2021/11/10 23:09:19;;;;;;;28.00;11.97;;;;;;;;;;10449082;28;20010;-75
2021/11/10 23:14:24;;;;;;;25.17;10.07;;;;;;;;;;10444423;28;20511;-72
2021/11/10 23:19:27;;;;;;;25.17;10.83;;;;;;;;;;10435181;28;20045;-73
2021/11/10 23:24:29;;;;;;;30.90;11.73;;;;;;;;;;10444847;28;20048;-72
2021/11/10 23:29:35;;;;;;;26.00;10.90;;;;;;;;;;10440129;28;20041;-73
2021/11/10 23:34:39;;;;;;;27.20;10.93;;;;;;;;;;10435018;28;20068;-72
2021/11/10 23:39:43;;;;;;;30.90;11.30;;;;;;;;;;10440126;28;20041;-74
2021/11/10 23:44:48;;;;;;;21.93;10.07;;;;;;;;;;10442227;28;20048;-74
2021/11/10 23:49:51;;;;;;;30.43;11.40;;;;;;;;;;10443642;28;20131;-73
2021/11/10 23:54:54;;;;;;;28.03;11.57;;;;;;;;;;10442681;28;20041;-71
2021/11/10 23:59:58;;;;;;;27.85;10.88;;;;;;;;;;10439399;28;20461;-73
